createdAt,value
2018-07-19T00:01:56.347Z,20.10
2018-07-19T00:04:25.127Z,20.10
2018-07-19T00:06:53.967Z,20.10
2018-07-19T00:11:51.164Z,20.00
2018-07-19T00:14:19.981Z,20.00
2018-07-19T00:16:48.767Z,20.00
2018-07-19T00:19:17.586Z,20.00
2018-07-19T00:21:46.390Z,20.00
2018-07-19T00:24:15.186Z,19.90
2018-07-19T00:26:43.957Z,19.80
2018-07-19T00:29:12.702Z,19.60
2018-07-19T00:31:41.507Z,19.40
2018-07-19T00:34:14.327Z,19.20
2018-07-19T00:36:43.086Z,19.00
2018-07-19T00:39:11.890Z,19.20
2018-07-19T00:41:45.058Z,19.20
2018-07-19T00:44:15.292Z,19.30
2018-07-19T00:46:44.726Z,19.30
2018-07-19T00:49:13.550Z,19.30
2018-07-19T00:51:42.303Z,19.30
2018-07-19T00:54:11.049Z,19.30
2018-07-19T00:56:39.835Z,19.40
2018-07-19T00:59:08.625Z,19.40
2018-07-19T01:01:37.509Z,19.40
2018-07-19T01:04:06.550Z,19.50
2018-07-19T01:06:35.346Z,19.60
2018-07-19T01:09:05.105Z,19.60
2018-07-19T01:11:33.909Z,19.60
2018-07-19T01:14:02.728Z,19.60
2018-07-19T01:16:31.582Z,19.60
2018-07-19T01:19:00.385Z,19.50
2018-07-19T01:21:29.239Z,19.50
2018-07-19T01:23:58.082Z,19.60
2018-07-19T01:26:26.895Z,19.60
2018-07-19T01:28:55.702Z,19.70
2018-07-19T01:31:24.510Z,19.70
2018-07-19T01:33:53.370Z,19.70
2018-07-19T01:36:22.166Z,19.70
2018-07-19T01:38:50.950Z,19.70
2018-07-19T01:41:38.658Z,19.60
2018-07-19T01:44:07.462Z,19.60
2018-07-19T01:46:36.263Z,19.60
2018-07-19T01:49:05.113Z,19.60
2018-07-19T01:51:33.934Z,19.70
2018-07-19T01:54:02.794Z,19.70
2018-07-19T01:56:31.603Z,19.70
2018-07-19T01:59:00.378Z,19.70
2018-07-19T02:01:29.148Z,19.70
2018-07-19T02:03:57.966Z,19.80
2018-07-19T02:06:26.783Z,19.70
2018-07-19T02:08:55.577Z,19.70
2018-07-19T02:11:24.384Z,19.70
2018-07-19T02:13:53.186Z,19.70
2018-07-19T02:16:22.083Z,19.70
2018-07-19T02:18:50.829Z,19.70
2018-07-19T02:21:19.646Z,19.70
2018-07-19T02:23:48.418Z,19.70
2018-07-19T02:26:17.244Z,19.70
2018-07-19T02:28:46.051Z,19.70
2018-07-19T02:31:14.814Z,19.70
2018-07-19T02:33:43.627Z,19.70
2018-07-19T02:36:12.379Z,19.70
2018-07-19T02:38:41.154Z,19.70
2018-07-19T02:41:10.418Z,19.70
2018-07-19T02:43:39.214Z,19.70
2018-07-19T02:46:08.041Z,19.70
2018-07-19T02:48:36.866Z,19.80
2018-07-19T02:51:05.749Z,19.80
2018-07-19T02:53:34.539Z,19.80
2018-07-19T02:56:03.634Z,19.80
2018-07-19T02:58:32.618Z,19.80
2018-07-19T03:01:01.414Z,19.90
2018-07-19T03:03:30.198Z,19.90
2018-07-19T03:05:59.292Z,19.90
2018-07-19T03:08:28.185Z,19.90
2018-07-19T03:10:56.992Z,19.90
2018-07-19T03:13:25.794Z,19.90
2018-07-19T03:15:54.666Z,19.90
2018-07-19T03:18:23.504Z,19.90
2018-07-19T03:20:52.354Z,19.90
2018-07-19T03:23:21.159Z,20.00
2018-07-19T03:25:49.970Z,20.00
2018-07-19T03:28:18.742Z,20.00
2018-07-19T03:30:47.589Z,20.00
2018-07-19T03:33:16.363Z,20.00
2018-07-19T03:35:45.166Z,20.00
2018-07-19T03:38:13.962Z,20.00
2018-07-19T03:40:42.822Z,20.10
2018-07-19T03:43:11.613Z,20.20
2018-07-19T03:45:40.486Z,20.20
2018-07-19T03:48:09.358Z,20.30
2018-07-19T03:50:38.315Z,20.40
2018-07-19T03:53:06.970Z,20.50
2018-07-19T03:55:35.743Z,20.50
2018-07-19T03:58:04.650Z,20.60
2018-07-19T04:00:33.485Z,20.60
2018-07-19T04:03:02.323Z,20.60
2018-07-19T04:05:31.115Z,20.60
2018-07-19T04:07:59.986Z,20.60
2018-07-19T04:10:28.817Z,20.60
2018-07-19T04:12:57.634Z,20.70
2018-07-19T04:15:26.458Z,20.60
2018-07-19T04:17:56.289Z,20.60
2018-07-19T04:20:27.198Z,20.50
2018-07-19T04:22:56.391Z,20.50
2018-07-19T04:25:25.857Z,20.40
2018-07-19T04:30:23.771Z,20.50
2018-07-19T04:32:52.606Z,20.50
2018-07-19T04:35:21.774Z,20.60
2018-07-19T04:37:50.526Z,20.60
2018-07-19T04:40:19.364Z,20.60
2018-07-19T04:42:48.161Z,20.60
2018-07-19T04:45:16.973Z,20.60
2018-07-19T04:47:45.801Z,20.60
2018-07-19T04:50:14.599Z,20.70
2018-07-19T04:52:43.479Z,20.70
2018-07-19T04:55:12.370Z,20.70
2018-07-19T04:57:41.158Z,20.80
2018-07-19T05:00:09.999Z,20.80
2018-07-19T05:02:39.074Z,20.80
2018-07-19T05:05:07.922Z,20.80
2018-07-19T05:07:36.838Z,20.90
2018-07-19T05:10:05.646Z,20.90
2018-07-19T05:15:02.862Z,21.10
2018-07-19T05:17:31.620Z,21.20
2018-07-19T05:20:00.442Z,21.20
2018-07-19T05:22:29.228Z,21.20
2018-07-19T05:24:58.012Z,21.20
2018-07-19T05:27:26.817Z,21.20
2018-07-19T05:29:55.627Z,21.40
2018-07-19T05:32:24.386Z,21.40
2018-07-19T05:34:53.254Z,21.50
2018-07-19T05:37:22.061Z,21.60
2018-07-19T05:39:50.842Z,21.70
2018-07-19T05:42:19.665Z,21.90
2018-07-19T05:44:48.444Z,21.90
2018-07-19T05:47:17.266Z,22.00
2018-07-19T05:49:46.145Z,22.00
2018-07-19T05:52:15.035Z,21.90
2018-07-19T05:54:43.824Z,22.00
2018-07-19T05:57:12.600Z,22.20
2018-07-19T05:59:41.398Z,22.30
2018-07-19T06:02:10.549Z,22.50
2018-07-19T06:04:39.369Z,22.70
2018-07-19T06:07:08.170Z,22.60
2018-07-19T06:09:37.060Z,22.50
2018-07-19T06:12:05.806Z,22.50
2018-07-19T06:14:34.617Z,22.50
2018-07-19T06:17:03.434Z,22.50
2018-07-19T06:19:32.291Z,22.70
2018-07-19T06:22:01.050Z,22.90
2018-07-19T06:24:29.869Z,23.10
2018-07-19T06:26:58.710Z,23.40
2018-07-19T06:29:27.559Z,23.40
2018-07-19T06:31:56.396Z,23.50
2018-07-19T06:34:25.202Z,23.60
2018-07-19T06:36:54.063Z,23.50
2018-07-19T06:39:22.866Z,23.60
2018-07-19T06:41:51.678Z,23.80
2018-07-19T06:44:20.844Z,23.90
2018-07-19T06:46:49.696Z,24.20
2018-07-19T06:49:18.581Z,24.40
2018-07-19T06:51:47.374Z,24.50
2018-07-19T06:54:16.463Z,24.50
2018-07-19T06:56:45.305Z,24.50
2018-07-19T06:59:14.098Z,24.40
2018-07-19T07:01:42.844Z,24.40
2018-07-19T07:04:11.614Z,24.50
2018-07-19T07:06:40.466Z,24.70
2018-07-19T07:09:10.978Z,25.00
2018-07-19T07:11:39.823Z,25.20
2018-07-19T07:14:08.731Z,25.40
2018-07-19T07:16:37.554Z,25.60
2018-07-19T07:19:06.373Z,25.50
2018-07-19T07:21:35.198Z,25.60
2018-07-19T07:24:04.407Z,25.40
2018-07-19T07:26:33.214Z,24.80
2018-07-19T07:29:02.027Z,24.40
2018-07-19T07:31:30.866Z,24.10
2018-07-19T07:33:59.677Z,23.90
2018-07-19T07:36:28.516Z,23.90
2018-07-19T07:38:57.359Z,23.80
2018-07-19T07:41:26.167Z,23.70
2018-07-19T07:43:55.359Z,23.90
2018-07-19T07:46:24.152Z,24.00
2018-07-19T07:48:53.305Z,24.20
2018-07-19T07:51:22.101Z,24.50
2018-07-19T07:53:50.973Z,24.70
2018-07-19T07:56:19.777Z,24.70
2018-07-19T07:58:48.576Z,24.80
2018-07-19T08:01:17.430Z,24.80
2018-07-19T08:03:46.240Z,24.70
2018-07-19T08:06:21.415Z,24.70
2018-07-19T08:08:50.302Z,24.80
2018-07-19T08:11:19.064Z,24.80
2018-07-19T08:13:47.943Z,24.80
2018-07-19T08:16:16.753Z,25.00
2018-07-19T08:18:45.561Z,25.40
2018-07-19T08:21:14.418Z,25.70
2018-07-19T08:23:43.250Z,25.90
2018-07-19T08:26:12.084Z,25.80
2018-07-19T08:28:40.925Z,25.80
2018-07-19T08:31:09.687Z,26.10
2018-07-19T08:33:38.427Z,26.60
2018-07-19T08:36:07.292Z,27.00
2018-07-19T08:38:36.421Z,27.30
2018-07-19T08:41:05.382Z,27.80
2018-07-19T08:43:34.195Z,28.20
2018-07-19T08:46:02.983Z,28.40
2018-07-19T08:48:31.802Z,28.70
2018-07-19T08:51:00.618Z,28.70
2018-07-19T08:53:29.431Z,28.80
2018-07-19T08:58:27.120Z,29.10
2018-07-19T09:00:56.292Z,29.30
2018-07-19T09:03:25.148Z,29.60
2018-07-19T09:05:54.003Z,29.80
2018-07-19T09:08:22.866Z,29.30
2018-07-19T09:10:51.653Z,29.70
2018-07-19T09:13:20.515Z,30.10
2018-07-19T09:15:49.360Z,30.20
2018-07-19T09:18:18.302Z,30.40
2018-07-19T09:20:47.093Z,30.70
2018-07-19T09:23:15.895Z,31.10
2018-07-19T09:25:44.726Z,31.20
2018-07-19T09:28:13.535Z,31.40
2018-07-19T09:30:42.390Z,31.60
2018-07-19T09:33:11.227Z,31.50
2018-07-19T09:35:40.040Z,31.30
2018-07-19T09:38:08.872Z,30.90
2018-07-19T09:40:37.691Z,29.70
2018-07-19T09:43:06.501Z,28.60
2018-07-19T09:45:35.269Z,28.20
2018-07-19T09:48:04.108Z,28.10
2018-07-19T09:50:32.955Z,28.30
2018-07-19T09:53:01.744Z,28.50
2018-07-19T09:55:30.543Z,28.40
2018-07-19T09:57:59.408Z,28.20
2018-07-19T10:00:33.668Z,27.70
2018-07-19T10:03:02.512Z,27.50
2018-07-19T10:05:31.761Z,27.40
2018-07-19T10:08:00.551Z,27.60
2018-07-19T10:10:29.386Z,27.60
2018-07-19T10:12:58.223Z,27.50
2018-07-19T10:15:27.064Z,27.30
2018-07-19T10:17:56.138Z,26.90
2018-07-19T10:20:25.064Z,26.90
2018-07-19T10:22:53.915Z,27.00
2018-07-19T10:25:22.717Z,27.20
2018-07-19T10:27:51.766Z,27.30
2018-07-19T10:30:20.582Z,27.20
2018-07-19T10:32:49.461Z,27.00
2018-07-19T10:35:18.325Z,27.10
2018-07-19T10:37:47.139Z,26.90
2018-07-19T10:40:15.958Z,26.90
2018-07-19T10:42:44.778Z,26.80
2018-07-19T10:45:13.579Z,26.60
2018-07-19T10:47:42.774Z,26.60
2018-07-19T10:50:18.238Z,26.80
2018-07-19T10:52:47.087Z,26.80
2018-07-19T10:55:16.208Z,26.90
2018-07-19T10:57:44.983Z,26.70
2018-07-19T11:00:13.797Z,26.70
2018-07-19T11:02:42.705Z,26.50
2018-07-19T11:05:11.507Z,26.70
2018-07-19T11:07:40.879Z,26.80
2018-07-19T11:10:09.679Z,26.90
2018-07-19T11:12:38.482Z,27.20
2018-07-19T11:15:07.443Z,27.50
2018-07-19T11:17:36.224Z,27.50
2018-07-19T11:20:05.051Z,27.70
2018-07-19T11:22:33.904Z,27.90
2018-07-19T11:25:02.651Z,27.70
2018-07-19T11:27:31.441Z,27.70
2018-07-19T11:30:00.239Z,27.70
2018-07-19T11:32:28.989Z,27.80
2018-07-19T11:34:57.771Z,27.80
2018-07-19T11:37:26.520Z,28.10
2018-07-19T11:39:55.292Z,28.30
2018-07-19T11:42:24.074Z,28.30
2018-07-19T11:44:52.849Z,28.30
2018-07-19T11:47:21.654Z,28.50
2018-07-19T11:49:50.540Z,28.70
2018-07-19T11:52:19.860Z,28.70
2018-07-19T11:54:48.846Z,28.70
2018-07-19T11:57:17.635Z,29.00
2018-07-19T11:59:46.434Z,28.90
2018-07-19T12:02:15.611Z,29.30
2018-07-19T12:04:44.399Z,29.30
2018-07-19T12:07:13.225Z,29.50
2018-07-19T12:09:42.078Z,29.70
2018-07-19T12:12:10.846Z,30.30
2018-07-19T12:14:39.682Z,31.20
2018-07-19T12:17:08.489Z,31.60
2018-07-19T12:19:37.311Z,32.10
2018-07-19T12:22:06.114Z,32.40
2018-07-19T12:24:35.203Z,32.40
2018-07-19T12:27:04.026Z,32.60
2018-07-19T12:29:32.818Z,32.40
2018-07-19T12:32:01.633Z,32.00
2018-07-19T12:34:30.432Z,31.60
2018-07-19T12:36:59.306Z,31.50
2018-07-19T12:39:28.031Z,31.30
2018-07-19T12:41:56.866Z,31.80
2018-07-19T12:44:25.658Z,32.10
2018-07-19T12:46:54.787Z,32.00
2018-07-19T12:49:23.585Z,32.20
2018-07-19T12:51:52.395Z,31.90
2018-07-19T12:54:21.170Z,31.70
2018-07-19T12:56:50.247Z,32.00
2018-07-19T12:59:19.392Z,31.50
2018-07-19T13:01:48.240Z,30.90
2018-07-19T13:04:17.030Z,30.50
2018-07-19T13:06:45.826Z,30.50
2018-07-19T13:09:14.620Z,30.70
2018-07-19T13:11:43.444Z,30.60
2018-07-19T13:14:12.242Z,30.50
2018-07-19T13:16:41.059Z,31.00
2018-07-19T13:19:09.873Z,31.60
2018-07-19T13:21:38.691Z,32.40
2018-07-19T13:24:07.513Z,33.00
2018-07-19T13:26:36.417Z,33.50
2018-07-19T13:29:05.298Z,33.90
2018-07-19T13:31:34.073Z,34.20
2018-07-19T13:34:02.850Z,34.70
2018-07-19T13:36:31.740Z,34.80
2018-07-19T13:39:00.763Z,35.00
2018-07-19T13:41:29.563Z,34.60
2018-07-19T13:43:58.394Z,33.80
2018-07-19T13:46:27.574Z,33.10
2018-07-19T13:48:56.449Z,32.10
2018-07-19T13:51:25.330Z,31.40
2018-07-19T13:54:19.917Z,31.00
2018-07-19T13:56:49.032Z,31.00
2018-07-19T13:59:18.217Z,32.40
2018-07-19T14:01:47.002Z,33.90
2018-07-19T14:04:15.810Z,35.50
2018-07-19T14:06:44.718Z,36.70
2018-07-19T14:09:14.802Z,37.90
2018-07-19T14:11:43.612Z,38.20
2018-07-19T14:14:12.486Z,38.10
2018-07-19T14:16:41.271Z,37.80
2018-07-19T14:19:10.050Z,38.20
2018-07-19T14:21:38.866Z,38.40
2018-07-19T14:24:07.681Z,39.10
2018-07-19T14:26:36.586Z,39.50
2018-07-19T14:29:05.664Z,39.30
2018-07-19T14:31:34.962Z,39.60
2018-07-19T14:34:03.859Z,39.10
2018-07-19T14:36:32.654Z,39.00
2018-07-19T14:39:01.670Z,38.20
2018-07-19T14:41:30.486Z,37.50
2018-07-19T14:43:59.238Z,37.40
2018-07-19T14:46:28.101Z,37.00
2018-07-19T14:48:56.909Z,36.70
2018-07-19T14:51:25.754Z,36.60
2018-07-19T14:53:54.585Z,36.20
2018-07-19T14:56:23.683Z,36.30
2018-07-19T14:58:52.461Z,35.70
2018-07-19T15:01:21.668Z,35.50
2018-07-19T15:03:50.533Z,34.90
2018-07-19T15:06:19.345Z,34.50
2018-07-19T15:08:48.135Z,33.70
2018-07-19T15:11:16.963Z,33.20
2018-07-19T15:13:45.742Z,32.90
2018-07-19T15:16:14.538Z,32.20
2018-07-19T15:18:43.454Z,32.40
2018-07-19T15:21:12.240Z,32.90
2018-07-19T15:23:41.065Z,32.80
2018-07-19T15:26:09.869Z,32.50
2018-07-19T15:28:38.677Z,31.90
2018-07-19T15:31:07.616Z,31.50
2018-07-19T15:33:36.398Z,31.40
2018-07-19T15:36:05.244Z,32.10
2018-07-19T15:38:34.043Z,32.80
2018-07-19T15:41:02.835Z,33.50
2018-07-19T15:43:31.668Z,33.70
2018-07-19T15:46:00.743Z,34.00
2018-07-19T15:48:29.509Z,33.30
2018-07-19T15:50:58.370Z,33.00
2018-07-19T15:53:27.182Z,32.70
2018-07-19T15:55:56.042Z,32.30
2018-07-19T15:58:24.809Z,32.00
2018-07-19T16:00:53.598Z,31.90
2018-07-19T16:03:22.370Z,31.40
2018-07-19T16:05:51.406Z,31.10
2018-07-19T16:08:20.183Z,30.80
2018-07-19T16:10:48.974Z,30.80
2018-07-19T16:13:17.784Z,30.80
2018-07-19T16:15:46.578Z,31.20
2018-07-19T16:18:15.391Z,31.40
2018-07-19T16:20:44.211Z,31.60
2018-07-19T16:23:13.046Z,31.70
2018-07-19T16:25:41.830Z,31.80
2018-07-19T16:28:10.666Z,31.60
2018-07-19T16:30:39.507Z,31.30
2018-07-19T16:33:08.315Z,31.00
2018-07-19T16:35:37.111Z,30.80
2018-07-19T16:38:05.934Z,30.80
2018-07-19T16:40:34.691Z,30.60
2018-07-19T16:43:03.500Z,30.30
2018-07-19T16:45:32.327Z,30.20
2018-07-19T16:48:01.131Z,30.20
2018-07-19T16:50:29.950Z,30.20
2018-07-19T16:52:59.138Z,30.20
2018-07-19T16:55:27.966Z,30.10
2018-07-19T16:57:56.744Z,29.90
2018-07-19T17:00:25.538Z,29.90
2018-07-19T17:02:54.366Z,29.80
2018-07-19T17:05:23.154Z,29.70
2018-07-19T17:07:51.966Z,29.70
2018-07-19T17:10:21.107Z,29.90
2018-07-19T17:12:49.939Z,29.80
2018-07-19T17:15:18.741Z,29.80
2018-07-19T17:17:48.378Z,29.70
2018-07-19T17:20:17.135Z,29.70
2018-07-19T17:22:46.181Z,29.50
2018-07-19T17:25:14.966Z,29.50
2018-07-19T17:27:43.744Z,29.30
2018-07-19T17:32:41.222Z,29.00
2018-07-19T17:35:11.257Z,28.90
2018-07-19T17:37:40.232Z,28.90
2018-07-19T17:40:09.213Z,29.00
2018-07-19T17:42:38.215Z,29.10
2018-07-19T17:45:07.607Z,29.10
2018-07-19T17:47:36.815Z,29.00
2018-07-19T17:50:05.726Z,28.70
2018-07-19T17:52:34.480Z,28.50
2018-07-19T17:55:03.326Z,28.30
2018-07-19T17:57:32.107Z,28.00
2018-07-19T18:00:01.195Z,27.90
2018-07-19T18:02:30.795Z,27.90
2018-07-19T18:04:59.655Z,27.70
2018-07-19T18:07:28.434Z,27.50
2018-07-19T18:12:25.659Z,27.30
2018-07-19T18:14:54.778Z,27.30
2018-07-19T18:17:23.597Z,27.20
2018-07-19T18:19:52.484Z,27.10
2018-07-19T18:22:21.315Z,27.00
2018-07-19T18:24:50.076Z,26.80
2018-07-19T18:27:18.883Z,26.70
2018-07-19T18:29:47.742Z,26.60
2018-07-19T18:32:16.507Z,26.30
2018-07-19T18:34:45.347Z,26.20
2018-07-19T18:37:14.434Z,26.00
2018-07-19T18:39:43.207Z,25.80
2018-07-19T18:42:12.021Z,25.60
2018-07-19T18:44:40.915Z,25.30
2018-07-19T18:47:09.678Z,25.20
2018-07-19T18:49:38.497Z,25.00
2018-07-19T18:52:07.330Z,24.80
2018-07-19T18:54:36.199Z,24.70
2018-07-19T18:57:05.264Z,24.60
2018-07-19T18:59:34.122Z,24.40
2018-07-19T19:02:02.937Z,24.30
2018-07-19T19:04:31.986Z,24.20
2018-07-19T19:07:01.139Z,24.10
2018-07-19T19:09:29.996Z,24.00
2018-07-19T19:11:58.817Z,23.90
2018-07-19T19:14:27.638Z,23.80
2018-07-19T19:16:56.998Z,23.70
2018-07-19T19:19:25.798Z,23.60
2018-07-19T19:21:54.614Z,23.50
2018-07-19T19:24:23.347Z,23.40
2018-07-19T19:26:52.258Z,23.30
2018-07-19T19:29:21.343Z,23.20
2018-07-19T19:31:50.089Z,23.10
2018-07-19T19:34:19.241Z,22.90
2018-07-19T19:36:48.042Z,22.80
2018-07-19T19:39:16.880Z,22.70
2018-07-19T19:41:46.253Z,22.60
2018-07-19T19:44:15.381Z,22.50
2018-07-19T19:46:44.174Z,22.40
2018-07-19T19:49:13.337Z,22.30
2018-07-19T19:51:42.710Z,22.30
2018-07-19T19:54:11.512Z,22.20
2018-07-19T19:56:40.317Z,22.20
2018-07-19T19:59:09.095Z,22.10
2018-07-19T20:01:37.879Z,22.10
2018-07-19T20:04:06.967Z,22.00
2018-07-19T20:06:35.986Z,22.00
2018-07-19T20:09:07.913Z,21.90
2018-07-19T20:11:37.067Z,21.90
2018-07-19T20:14:06.250Z,21.80
2018-07-19T20:16:35.086Z,21.80
2018-07-19T20:19:04.538Z,21.70
2018-07-19T20:21:33.393Z,21.60
2018-07-19T20:24:02.499Z,21.40
2018-07-19T20:26:31.304Z,21.30
2018-07-19T20:29:00.073Z,21.20
2018-07-19T20:31:28.901Z,21.10
2018-07-19T20:33:57.697Z,21.00
2018-07-19T20:36:26.778Z,21.00
2018-07-19T20:38:55.668Z,20.90
2018-07-19T20:41:24.462Z,20.90
2018-07-19T20:43:53.213Z,20.80
2018-07-19T20:46:22.309Z,20.70
2018-07-19T20:48:51.690Z,20.60
2018-07-19T20:53:48.911Z,20.50
2018-07-19T20:56:17.734Z,20.60
2018-07-19T20:58:46.642Z,20.50
2018-07-19T21:01:15.539Z,20.50
2018-07-19T21:03:44.338Z,20.50
2018-07-19T21:06:13.114Z,20.50
2018-07-19T21:08:41.934Z,20.40
2018-07-19T21:11:11.017Z,20.40
2018-07-19T21:13:40.123Z,20.50
2018-07-19T21:16:08.918Z,20.40
2018-07-19T21:18:37.738Z,20.40
2018-07-19T21:21:06.582Z,20.30
2018-07-19T21:23:35.345Z,20.30
2018-07-19T21:26:04.572Z,20.30
2018-07-19T21:28:33.410Z,20.20
2018-07-19T21:31:02.215Z,20.20
2018-07-19T21:33:31.358Z,20.20
2018-07-19T21:36:00.433Z,20.20
2018-07-19T21:38:29.474Z,20.20
2018-07-19T21:40:58.294Z,20.10
2018-07-19T21:43:27.059Z,20.10
2018-07-19T21:45:55.819Z,20.10
2018-07-19T21:48:24.998Z,20.00
2018-07-19T21:50:53.765Z,19.90
2018-07-19T21:53:22.538Z,19.90
2018-07-19T21:55:51.351Z,19.80
2018-07-19T21:58:20.115Z,19.80
2018-07-19T22:00:54.103Z,19.80
2018-07-19T22:03:23.478Z,19.80
2018-07-19T22:05:52.232Z,19.80
2018-07-19T22:08:21.007Z,19.90
2018-07-19T22:10:49.806Z,19.90
2018-07-19T22:13:18.694Z,19.80
2018-07-19T22:15:47.482Z,19.80
2018-07-19T22:18:16.307Z,19.70
2018-07-19T22:20:45.091Z,19.70
2018-07-19T22:23:14.058Z,19.60
2018-07-19T22:25:42.828Z,19.60
2018-07-19T22:28:11.719Z,19.70
2018-07-19T22:30:40.534Z,19.70
2018-07-19T22:33:09.516Z,19.60
2018-07-19T22:35:38.436Z,19.60
2018-07-19T22:38:07.214Z,19.60
2018-07-19T22:40:36.010Z,19.60
2018-07-19T22:43:04.850Z,19.60
2018-07-19T22:45:33.789Z,19.60
2018-07-19T22:48:02.715Z,19.50
2018-07-19T22:50:31.642Z,19.50
2018-07-19T22:53:00.475Z,19.50
2018-07-19T22:55:29.231Z,19.50
2018-07-19T22:57:58.018Z,19.40
2018-07-19T23:00:26.854Z,19.50
2018-07-19T23:02:55.683Z,19.50
2018-07-19T23:05:24.466Z,19.40
2018-07-19T23:07:53.296Z,19.40
2018-07-19T23:10:22.185Z,19.40
2018-07-19T23:12:50.984Z,19.30
2018-07-19T23:15:19.807Z,19.30
2018-07-19T23:17:48.602Z,19.30
2018-07-19T23:20:17.411Z,19.30
2018-07-19T23:22:53.652Z,19.30
2018-07-19T23:25:22.492Z,19.30
2018-07-19T23:27:51.466Z,19.30
2018-07-19T23:30:20.512Z,19.20
2018-07-19T23:32:49.586Z,19.20
2018-07-19T23:35:19.116Z,19.30
2018-07-19T23:37:49.946Z,19.30
2018-07-19T23:40:25.675Z,19.20
2018-07-19T23:43:02.584Z,19.20
2018-07-19T23:46:06.281Z,19.20
2018-07-19T23:48:35.198Z,19.20
2018-07-19T23:51:04.031Z,19.20
2018-07-19T23:53:32.874Z,19.20
2018-07-19T23:56:01.733Z,19.10
2018-07-19T23:58:30.546Z,19.10
